Terminal Aerodrome Forecast
Issued by NWS

Home | Current Version | Previous Version | Text Only | Print | Product List | Glossary Off
Versions: 1 2 3 4 5 6 7 8 9 10 11 12 13 14 15 16

000
FTUS43 KGRB 301012 AAA
TAFAUW
TAF AMD
KAUW 301012Z 3010/0106 32004KT 6SM BR SCT006 SCT015
      TEMPO 3010/3013 3SM BR BKN006 BKN015
     FM301500 35009KT P6SM SCT015 BKN025
     FM301800 35010KT P6SM BKN035
     FM302200 36006KT P6SM SKC=

USA.gov is the U.S. government's official web portal to all federal, state and local government web resources and services.